Sao Jose do Rio Pardo, Brazil
Current Conditions -  °F | °C
As of 6:29 AM on Wednesday 26 Nov 2014 (Local Time) from SBYS Reporting Station
Light Rain Light Rain  
Wind Chill: 70°   Ceiling: 500
Heat Index: 70°   Visibility: 1.8mi
Dew Point: 68°   Wind: 7mph
Humidity: 94%   Direction: 20°NNE
Pressure: 29.83"   Gusts: NA
Location:  21.59°S, 46.89°W
Report Text: SBYS 260829Z 02006KT 3000 -RA BKN005 BKN014 BKN100 21/20 Q1010
Loading
Personal Weather Stations






























Interactive Weather Map New forecast layout! Learn more

10-Day Weather Forecast

Advertisements
Track Severe Weather on mobile